Time;durP1;ratioP1;P1;durP2;ratioP2;P2;SDS_P1;SDS_P2;PMS_P1;PMS_P2;Temp;Humidity;BMP_temperature;BMP_pressure;BME280_temperature;BME280_humidity;BME280_pressure;Samples;Min_cycle;Max_cycle;Signal;HPM_P1;HPM_P2
2022/05/27 00:01:28;;;;;;;2.88;1.10;;;13.90;99.90;;;;;;5055979;28;20504;-71
2022/05/27 00:03:56;;;;;;;4.45;1.25;;;13.90;99.90;;;;;;5055660;28;20057;-73
2022/05/27 00:06:22;;;;;;;3.13;1.30;;;13.90;99.90;;;;;;5055760;28;20523;-73
2022/05/27 00:08:48;;;;;;;4.05;1.30;;;13.90;99.90;;;;;;5055717;28;20098;-72
2022/05/27 00:11:14;;;;;;;3.35;1.00;;;14.00;99.90;;;;;;5055619;28;20490;-72
2022/05/27 00:13:41;;;;;;;2.15;1.00;;;13.90;99.90;;;;;;5055618;28;20041;-72
2022/05/27 00:16:08;;;;;;;5.32;1.30;;;13.90;99.90;;;;;;5055438;28;20056;-72
2022/05/27 00:18:35;;;;;;;5.40;1.73;;;13.80;99.90;;;;;;5055789;28;20369;-73
2022/05/27 00:21:02;;;;;;;2.95;1.27;;;13.90;99.90;;;;;;5055595;28;20035;-73
2022/05/27 00:23:28;;;;;;;4.75;1.13;;;13.90;99.90;;;;;;5055480;28;20512;-72
2022/05/27 00:25:54;;;;;;;2.20;0.93;;;13.90;99.90;;;;;;5055263;28;20110;-75
2022/05/27 00:28:20;;;;;;;4.13;1.27;;;14.00;99.90;;;;;;5055586;28;20041;-73
2022/05/27 00:30:46;;;;;;;4.47;1.10;;;14.00;99.90;;;;;;5055355;28;20047;-73
2022/05/27 00:33:12;;;;;;;4.43;1.33;;;14.10;99.90;;;;;;5055376;28;20123;-73
2022/05/27 00:35:38;;;;;;;3.45;1.10;;;14.10;99.90;;;;;;5055419;28;20044;-73
2022/05/27 00:38:05;;;;;;;3.58;1.15;;;14.00;99.90;;;;;;5055244;28;20053;-73
2022/05/27 00:40:37;;;;;;;2.90;1.20;;;14.00;99.90;;;;;;5054409;28;20115;-73
2022/05/27 00:43:03;;;;;;;9.27;1.73;;;13.90;99.90;;;;;;5054992;28;20144;-73
2022/05/27 00:45:29;;;;;;;3.05;1.08;;;13.90;99.90;;;;;;5055037;28;20068;-73
2022/05/27 00:47:57;;;;;;;6.75;1.58;;;13.90;99.90;;;;;;5054946;28;20069;-73
2022/05/27 00:50:32;;;;;;;6.32;1.50;;;13.90;99.90;;;;;;5055072;28;20462;-73
2022/05/27 00:53:01;;;;;;;4.32;1.40;;;13.80;99.90;;;;;;5054766;28;20045;-73
2022/05/27 00:55:29;;;;;;;4.88;1.25;;;13.90;99.90;;;;;;5054719;28;20040;-73
2022/05/27 00:58:18;;;;;;;4.57;1.15;;;13.90;99.90;;;;;;5054898;28;20048;-73
2022/05/27 01:00:44;;;;;;;8.68;1.40;;;13.90;99.90;;;;;;5054879;28;20496;-73
2022/05/27 01:03:14;;;;;;;2.92;1.10;;;13.90;99.90;;;;;;5053192;28;20056;-73
2022/05/27 01:05:42;;;;;;;3.97;1.33;;;13.80;99.90;;;;;;5054719;28;20446;-74
2022/05/27 01:08:11;;;;;;;7.20;1.92;;;13.90;99.90;;;;;;5054542;28;20044;-74
2022/05/27 01:11:14;;;;;;;4.28;1.55;;;13.90;99.90;;;;;;5054527;28;20060;-74
2022/05/27 01:14:04;;;;;;;4.50;1.23;;;13.90;99.90;;;;;;5054046;28;20029;-73
2022/05/27 01:16:33;;;;;;;2.15;1.20;;;13.90;99.90;;;;;;5054369;28;20091;-73
2022/05/27 01:22:27;;;;;;;3.47;1.15;;;13.80;99.90;;;;;;5054046;28;20078;-73
2022/05/27 01:25:12;;;;;;;3.55;1.40;;;13.70;99.90;;;;;;5054356;28;20369;-73
2022/05/27 01:28:15;;;;;;;3.45;1.83;;;13.60;99.90;;;;;;5054415;28;20029;-74
2022/05/27 01:30:50;;;;;;;4.63;1.05;;;13.70;99.90;;;;;;5054371;28;20078;-75
2022/05/27 01:33:30;;;;;;;2.97;1.33;;;13.60;99.90;;;;;;5053719;28;20056;-74
2022/05/27 01:36:27;;;;;;;4.18;1.40;;;13.60;99.90;;;;;;5054307;28;20072;-74
2022/05/27 01:39:09;;;;;;;3.33;1.10;;;13.60;99.90;;;;;;5055338;28;20076;-79
2022/05/27 01:41:44;;;;;;;3.17;1.20;;;13.60;99.90;;;;;;5054563;28;20033;-76
2022/05/27 01:44:17;;;;;;;6.47;1.33;;;13.50;99.90;;;;;;5054149;28;20053;-79
2022/05/27 01:46:45;;;;;;;2.72;1.10;;;13.50;99.90;;;;;;5054115;28;20037;-78
2022/05/27 01:49:20;;;;;;;4.10;1.45;;;13.50;99.90;;;;;;5053869;28;20115;-80
2022/05/27 01:51:59;;;;;;;4.50;1.50;;;13.60;99.90;;;;;;5053882;28;20467;-80
2022/05/27 01:54:46;;;;;;;3.83;1.15;;;13.60;99.90;;;;;;5054040;28;20420;-79
2022/05/27 01:57:26;;;;;;;5.47;1.30;;;13.50;99.90;;;;;;5053923;28;20099;-79
2022/05/27 02:00:04;;;;;;;4.18;1.23;;;13.40;99.90;;;;;;5053980;28;20051;-79
2022/05/27 02:02:31;;;;;;;2.72;0.90;;;13.40;99.90;;;;;;5052389;28;20045;-79
2022/05/27 02:05:15;;;;;;;3.65;1.25;;;13.40;99.90;;;;;;5052548;28;20504;-79
2022/05/27 02:07:47;;;;;;;7.50;1.92;;;13.20;99.90;;;;;;5053609;28;20040;-80
2022/05/27 02:10:25;;;;;;;3.70;1.42;;;13.20;99.90;;;;;;5053628;28;20523;-81
2022/05/27 02:12:57;;;;;;;5.18;0.93;;;13.40;99.90;;;;;;5053582;28;20040;-80
2022/05/27 02:15:31;;;;;;;2.90;1.15;;;13.50;99.90;;;;;;5052625;28;20404;-81
2022/05/27 02:18:07;;;;;;;2.28;1.17;;;13.50;99.90;;;;;;5053866;28;20036;-81
2022/05/27 02:20:45;;;;;;;2.40;1.00;;;13.40;99.90;;;;;;5053652;28;20064;-73
2022/05/27 02:23:33;;;;;;;3.40;1.10;;;13.50;99.90;;;;;;5053614;28;20403;-74
2022/05/27 02:26:03;;;;;;;3.65;1.00;;;13.30;99.90;;;;;;5057578;28;20120;-73
2022/05/27 02:28:41;;;;;;;5.07;1.10;;;13.20;99.90;;;;;;5057656;28;20136;-73
2022/05/27 02:31:19;;;;;;;2.72;1.10;;;13.10;99.90;;;;;;5057600;28;20484;-76
2022/05/27 02:37:03;;;;;;;5.43;1.75;;;13.20;99.90;;;;;;5057462;28;20079;-73
2022/05/27 02:39:29;;;;;;;2.53;1.10;;;13.30;99.90;;;;;;5057542;28;20124;-73
2022/05/27 02:42:35;;;;;;;5.03;1.20;;;13.40;99.90;;;;;;5056881;28;20127;-73
2022/05/27 02:45:24;;;;;;;4.07;1.10;;;13.40;99.90;;;;;;5057497;28;20370;-74
2022/05/27 02:48:08;;;;;;;4.57;1.10;;;13.40;99.90;;;;;;5057291;28;20052;-73
2022/05/27 02:50:47;;;;;;;4.10;1.40;;;13.40;99.90;;;;;;5057181;28;20044;-73
2022/05/27 02:53:39;;;;;;;3.55;1.30;;;13.40;99.90;;;;;;5057114;28;20047;-73
2022/05/27 02:56:14;;;;;;;2.67;0.70;;;13.20;99.90;;;;;;5057182;28;20041;-77
2022/05/27 02:58:40;;;;;;;2.97;1.20;;;13.20;99.90;;;;;;5057394;28;20036;-75
2022/05/27 03:01:07;;;;;;;4.30;1.23;;;13.40;99.90;;;;;;5057236;28;20045;-78
2022/05/27 03:03:34;;;;;;;2.65;0.95;;;13.30;99.90;;;;;;5056869;28;20158;-79
2022/05/27 03:06:16;;;;;;;2.80;1.10;;;13.40;99.90;;;;;;5057115;28;20063;-77
2022/05/27 03:08:54;;;;;;;3.55;1.00;;;13.40;99.90;;;;;;5057118;28;20045;-74
2022/05/27 03:11:58;;;;;;;2.67;1.17;;;13.40;99.90;;;;;;5057015;28;20048;-74
2022/05/27 03:14:53;;;;;;;2.13;0.90;;;13.50;99.90;;;;;;5056852;28;20438;-75
2022/05/27 03:17:42;;;;;;;4.30;1.38;;;13.40;99.90;;;;;;5019554;28;20203;-73
2022/05/27 03:20:23;;;;;;;3.33;1.35;;;13.40;99.90;;;;;;5056725;28;20094;-73
2022/05/27 03:23:11;;;;;;;3.67;0.88;;;13.20;99.90;;;;;;5056477;28;20037;-71
2022/05/27 03:25:47;;;;;;;3.65;1.08;;;13.30;99.90;;;;;;5056515;28;20539;-77
2022/05/27 03:28:33;;;;;;;3.42;1.38;;;13.30;99.90;;;;;;5056610;28;20036;-77
2022/05/27 03:31:12;;;;;;;2.80;1.23;;;13.40;99.90;;;;;;5056702;28;20404;-77
2022/05/27 03:33:59;;;;;;;2.85;1.00;;;13.40;99.90;;;;;;5056547;28;20037;-77
2022/05/27 03:36:50;;;;;;;3.05;1.17;;;13.30;99.90;;;;;;5055821;28;20033;-76
2022/05/27 03:39:25;;;;;;;1.85;1.20;;;13.20;99.90;;;;;;5056442;28;20044;-76
2022/05/27 03:41:58;;;;;;;2.45;1.00;;;13.20;99.90;;;;;;5056217;28;20362;-75
2022/05/27 03:44:27;;;;;;;3.90;1.40;;;13.30;99.90;;;;;;5056288;28;20116;-77
2022/05/27 03:46:55;;;;;;;4.00;1.25;;;13.10;99.90;;;;;;5056166;28;20041;-75
2022/05/27 03:49:21;;;;;;;1.38;0.93;;;13.00;99.90;;;;;;5055705;28;20500;-73
2022/05/27 03:52:10;;;;;;;8.48;1.52;;;13.00;99.90;;;;;;5056178;28;20493;-76
2022/05/27 03:54:36;;;;;;;2.20;0.95;;;13.00;99.90;;;;;;5056161;28;20049;-73
2022/05/27 03:57:02;;;;;;;2.55;1.10;;;13.00;99.90;;;;;;5056211;28;20044;-73
2022/05/27 03:59:28;;;;;;;3.92;1.10;;;13.00;99.90;;;;;;5056019;28;20067;-73
2022/05/27 04:01:55;;;;;;;3.95;1.13;;;13.00;99.90;;;;;;5055743;28;20049;-72
2022/05/27 04:04:24;;;;;;;5.63;1.00;;;13.00;99.90;;;;;;5055887;28;20048;-73
2022/05/27 04:06:50;;;;;;;2.47;1.05;;;13.10;99.90;;;;;;5055713;28;20042;-73
2022/05/27 04:09:18;;;;;;;2.72;1.00;;;13.10;99.90;;;;;;5055836;28;20132;-73
2022/05/27 04:11:44;;;;;;;2.45;0.82;;;13.10;99.90;;;;;;5055792;28;20123;-73
2022/05/27 04:14:11;;;;;;;2.80;1.48;;;13.10;99.90;;;;;;5055807;28;20169;-73
2022/05/27 04:16:38;;;;;;;1.67;1.05;;;13.00;99.90;;;;;;5055750;28;20086;-72
2022/05/27 04:19:04;;;;;;;4.43;1.00;;;13.10;99.90;;;;;;5055683;28;20040;-72
2022/05/27 04:21:30;;;;;;;2.92;1.00;;;13.10;99.90;;;;;;5055660;28;20052;-73
2022/05/27 04:23:56;;;;;;;2.20;1.10;;;13.00;99.90;;;;;;5055597;28;20033;-73
2022/05/27 04:26:22;;;;;;;1.55;0.90;;;13.10;99.90;;;;;;5055546;28;20047;-78
2022/05/27 04:28:48;;;;;;;4.13;1.00;;;13.10;99.90;;;;;;5055397;28;20068;-75
2022/05/27 04:31:14;;;;;;;2.22;0.95;;;13.00;99.90;;;;;;5055445;28;20157;-75
2022/05/27 04:33:40;;;;;;;3.75;1.10;;;12.90;99.90;;;;;;5055196;28;20086;-75
2022/05/27 04:36:07;;;;;;;3.55;1.10;;;12.80;99.90;;;;;;5054015;28;20083;-74
2022/05/27 04:38:33;;;;;;;3.80;1.23;;;12.90;99.90;;;;;;5055194;28;20036;-74
2022/05/27 04:40:59;;;;;;;2.75;0.85;;;12.90;99.90;;;;;;5055148;28;20037;-74
2022/05/27 04:43:25;;;;;;;2.40;0.90;;;12.90;99.90;;;;;;5054131;28;20059;-74
2022/05/27 04:45:51;;;;;;;2.50;1.27;;;12.90;99.90;;;;;;5054800;28;20087;-75
2022/05/27 04:48:18;;;;;;;6.57;1.50;;;12.90;99.90;;;;;;5053018;28;20043;-75
2022/05/27 04:50:44;;;;;;;4.75;1.52;;;13.00;99.90;;;;;;5054818;28;20040;-76
2022/05/27 04:53:10;;;;;;;2.22;0.98;;;13.00;99.90;;;;;;5055079;28;20082;-76
2022/05/27 04:55:38;;;;;;;1.73;1.00;;;13.00;99.90;;;;;;5054864;28;20036;-76
2022/05/27 04:58:05;;;;;;;1.95;1.00;;;13.10;99.90;;;;;;5054857;28;20147;-75
2022/05/27 05:00:34;;;;;;;5.50;1.40;;;13.20;99.90;;;;;;5054686;28;20047;-75
2022/05/27 05:03:00;;;;;;;3.75;1.13;;;13.30;99.90;;;;;;5053864;28;20057;-76
2022/05/27 05:05:30;;;;;;;3.10;1.00;;;13.30;99.90;;;;;;5054792;28;20037;-75
2022/05/27 05:08:17;;;;;;;5.40;1.10;;;13.40;99.90;;;;;;5054657;28;20041;-75
2022/05/27 05:10:43;;;;;;;4.50;1.20;;;13.40;99.90;;;;;;5054683;28;20052;-76
2022/05/27 05:13:09;;;;;;;4.63;1.05;;;13.50;99.90;;;;;;5054643;28;20080;-75
2022/05/27 05:15:36;;;;;;;5.15;1.20;;;13.60;99.90;;;;;;5054420;28;20070;-75
2022/05/27 05:18:02;;;;;;;2.28;1.20;;;13.60;99.90;;;;;;5054577;28;20052;-78
2022/05/27 05:20:30;;;;;;;5.55;1.20;;;13.60;99.90;;;;;;5054386;28;20408;-78
2022/05/27 05:22:56;;;;;;;4.30;1.35;;;13.70;99.90;;;;;;5054292;28;20090;-78
2022/05/27 05:25:23;;;;;;;3.63;1.15;;;13.80;99.90;;;;;;5054494;28;20127;-74
2022/05/27 05:27:50;;;;;;;3.30;0.88;;;14.00;99.90;;;;;;5053164;28;20396;-78
2022/05/27 05:30:18;;;;;;;10.00;1.20;;;14.10;99.90;;;;;;5054428;28;20044;-78
2022/05/27 05:32:44;;;;;;;3.50;1.10;;;14.30;99.90;;;;;;5054394;28;20123;-78
2022/05/27 05:35:12;;;;;;;4.05;1.08;;;14.40;99.90;;;;;;5054214;28;20094;-81
2022/05/27 05:37:37;;;;;;;5.32;1.20;;;14.50;99.90;;;;;;5054210;28;20056;-78
2022/05/27 05:40:04;;;;;;;1.80;0.90;;;14.40;99.90;;;;;;5054238;28;20032;-79
2022/05/27 05:42:31;;;;;;;2.55;0.80;;;14.50;99.90;;;;;;5054002;28;20584;-73
2022/05/27 05:44:59;;;;;;;6.55;1.00;;;14.50;99.90;;;;;;5054092;28;20369;-77
2022/05/27 05:47:25;;;;;;;1.70;0.90;;;14.50;99.90;;;;;;5054107;28;20074;-81
2022/05/27 05:49:51;;;;;;;2.17;0.80;;;14.60;99.90;;;;;;5054076;28;20127;-77
2022/05/27 05:52:17;;;;;;;2.08;0.93;;;14.60;99.90;;;;;;5054215;28;20087;-78
2022/05/27 05:54:43;;;;;;;3.65;1.42;;;14.70;99.90;;;;;;5053941;28;20033;-75
2022/05/27 05:57:10;;;;;;;4.38;1.00;;;14.60;99.90;;;;;;5054704;28;20374;-74
2022/05/27 05:59:38;;;;;;;3.60;1.00;;;14.80;99.90;;;;;;5054505;28;20068;-74
2022/05/27 06:02:05;;;;;;;2.92;0.95;;;14.80;99.90;;;;;;5053665;28;20511;-79
2022/05/27 06:04:31;;;;;;;4.25;1.00;;;14.80;99.90;;;;;;5053877;28;20036;-77
2022/05/27 06:06:58;;;;;;;6.07;1.35;;;14.90;99.90;;;;;;5052567;28;20040;-73
2022/05/27 06:09:27;;;;;;;2.78;0.73;;;14.80;99.90;;;;;;5053904;28;20045;-74
2022/05/27 06:12:00;;;;;;;4.65;1.30;;;14.90;99.90;;;;;;5053588;28;20037;-78
2022/05/27 06:14:26;;;;;;;1.85;0.82;;;15.00;99.90;;;;;;5053798;28;20045;-76
2022/05/27 06:16:52;;;;;;;2.53;0.85;;;15.00;99.90;;;;;;5053813;28;20052;-75
2022/05/27 06:19:18;;;;;;;2.35;0.73;;;15.10;99.90;;;;;;5053678;28;20044;-75
2022/05/27 06:21:43;;;;;;;4.50;0.90;;;15.20;99.90;;;;;;5053797;28;20099;-77
2022/05/27 06:24:10;;;;;;;2.45;0.88;;;15.20;99.90;;;;;;5052970;28;20049;-75
2022/05/27 06:26:38;;;;;;;2.78;0.85;;;15.20;99.90;;;;;;5053734;28;20039;-74
2022/05/27 06:34:33;;;;;;;3.08;0.70;;;15.40;99.90;;;;;;5053492;28;20040;-75
2022/05/27 06:37:03;;;;;;;1.48;0.77;;;15.50;99.90;;;;;;5052539;28;20037;-75
2022/05/27 06:39:31;;;;;;;1.48;0.60;;;15.50;99.90;;;;;;5053507;28;20040;-74
2022/05/27 06:41:57;;;;;;;1.63;0.70;;;15.60;99.90;;;;;;5053467;28;20041;-74
2022/05/27 06:44:23;;;;;;;3.40;0.80;;;15.70;99.90;;;;;;5052151;28;20076;-77
2022/05/27 06:46:51;;;;;;;0.80;0.60;;;15.70;99.90;;;;;;5053561;28;20037;-77
2022/05/27 06:49:18;;;;;;;1.45;0.70;;;15.70;99.90;;;;;;5052218;28;20565;-78
2022/05/27 06:51:45;;;;;;;2.95;1.08;;;15.70;99.90;;;;;;5052544;28;20051;-77
2022/05/27 06:54:11;;;;;;;1.42;0.80;;;15.60;99.90;;;;;;5053455;28;20033;-76
2022/05/27 06:56:40;;;;;;;1.23;0.40;;;15.60;99.90;;;;;;5053326;28;20048;-75
2022/05/27 06:59:08;;;;;;;1.58;0.50;;;15.80;99.90;;;;;;5053374;28;20654;-77
2022/05/27 07:01:34;;;;;;;1.10;0.60;;;15.90;99.90;;;;;;5053220;28;20131;-74
2022/05/27 07:04:01;;;;;;;4.57;0.80;;;16.00;99.90;;;;;;5053095;28;20057;-76
2022/05/27 07:06:32;;;;;;;0.57;0.40;;;16.00;99.90;;;;;;5053311;28;20041;-74
2022/05/27 07:09:00;;;;;;;1.90;0.63;;;16.10;99.90;;;;;;5053058;28;20579;-76
2022/05/27 07:11:25;;;;;;;1.48;0.68;;;16.00;99.90;;;;;;5056038;28;20118;-75
2022/05/27 07:13:51;;;;;;;3.92;0.70;;;16.00;99.90;;;;;;5056584;28;20068;-75
2022/05/27 07:16:17;;;;;;;1.23;0.50;;;16.10;99.90;;;;;;5055099;28;20630;-74
2022/05/27 07:18:43;;;;;;;1.35;0.73;;;16.20;99.90;;;;;;5056534;28;20120;-76
2022/05/27 07:21:09;;;;;;;1.67;0.65;;;16.20;99.90;;;;;;5056700;28;20039;-76
2022/05/27 07:23:35;;;;;;;1.13;0.60;;;16.20;99.90;;;;;;5056704;28;20056;-77
2022/05/27 07:26:01;;;;;;;1.48;0.47;;;16.20;99.90;;;;;;5056765;28;20047;-75
2022/05/27 07:28:27;;;;;;;1.98;0.63;;;16.20;99.90;;;;;;5056050;28;20128;-75
2022/05/27 07:30:54;;;;;;;2.05;0.50;;;16.10;99.90;;;;;;5056464;28;20025;-74
2022/05/27 07:33:20;;;;;;;0.98;0.50;;;16.20;99.90;;;;;;5056677;28;20048;-73
2022/05/27 07:35:47;;;;;;;0.82;0.50;;;16.10;99.90;;;;;;5055127;28;20033;-74
2022/05/27 07:38:13;;;;;;;0.70;0.40;;;16.20;99.90;;;;;;5056562;28;20044;-73
2022/05/27 07:40:40;;;;;;;2.50;0.68;;;16.20;99.90;;;;;;5056473;28;20055;-73
2022/05/27 07:43:10;;;;;;;1.65;0.50;;;16.10;99.90;;;;;;5055277;28;20049;-73
2022/05/27 07:45:38;;;;;;;1.45;0.80;;;16.20;99.90;;;;;;5056153;28;20036;-73
2022/05/27 07:48:05;;;;;;;2.67;0.52;;;16.20;99.90;;;;;;5056460;28;20451;-74
2022/05/27 07:50:31;;;;;;;0.73;0.50;;;16.20;99.90;;;;;;5056318;28;20040;-72
2022/05/27 07:52:57;;;;;;;1.48;0.40;;;16.10;99.90;;;;;;5056340;28;20037;-72
2022/05/27 07:55:23;;;;;;;1.30;0.63;;;16.30;99.90;;;;;;5056104;28;20091;-73
2022/05/27 07:57:50;;;;;;;1.30;0.40;;;16.30;99.90;;;;;;5056010;28;20546;-72
2022/05/27 08:00:30;;;;;;;1.75;0.68;;;16.50;99.90;;;;;;5055833;28;20044;-72
2022/05/27 08:02:56;;;;;;;2.47;0.38;;;16.50;99.90;;;;;;5055649;28;20573;-73
2022/05/27 08:05:25;;;;;;;0.75;0.43;;;16.60;99.90;;;;;;5055975;28;20072;-72
2022/05/27 08:07:53;;;;;;;2.08;0.45;;;16.60;99.90;;;;;;5055897;28;20081;-72
2022/05/27 08:10:24;;;;;;;1.33;0.60;;;16.80;99.90;;;;;;5055532;28;20036;-73
2022/05/27 08:12:50;;;;;;;1.15;0.60;;;16.70;99.90;;;;;;5055655;28;20048;-72
2022/05/27 08:15:16;;;;;;;1.08;0.50;;;16.80;99.90;;;;;;5055680;28;20040;-73
2022/05/27 08:17:43;;;;;;;2.53;0.50;;;16.90;99.90;;;;;;5055597;28;20076;-73
2022/05/27 08:20:11;;;;;;;4.78;0.60;;;;;;;;;;5055698;28;20049;-72
2022/05/27 08:22:37;;;;;;;2.33;0.40;;;17.00;99.90;;;;;;5055554;28;20048;-73
2022/05/27 08:25:03;;;;;;;1.08;0.47;;;16.80;99.90;;;;;;5054088;28;20056;-73
2022/05/27 08:27:29;;;;;;;1.02;0.38;;;16.70;99.90;;;;;;5055525;28;20029;-74
2022/05/27 08:29:55;;;;;;;2.30;0.93;;;16.70;99.90;;;;;;5055430;28;20041;-73
2022/05/27 08:32:21;;;;;;;4.45;0.80;;;16.70;99.90;;;;;;5054178;28;20072;-73
2022/05/27 08:40:42;;;;;;;2.90;0.70;;;16.80;99.90;;;;;;5061899;28;20075;-74
2022/05/27 08:43:44;;;;;;;0.85;0.30;;;17.10;99.90;;;;;;5046195;28;20082;-73
2022/05/27 08:46:47;;;;;;;2.40;0.60;;;17.40;99.90;;;;;;5055055;28;20037;-73
2022/05/27 08:49:30;;;;;;;8.32;1.58;;;17.60;99.90;;;;;;5055040;28;20516;-76
2022/05/27 08:52:19;;;;;;;1.52;0.40;;;17.40;99.90;;;;;;5054344;28;20604;-73
2022/05/27 08:54:52;;;;;;;0.75;0.40;;;;;;;;;;5071346;28;20071;-73
2022/05/27 09:00:24;;;;;;;3.10;0.70;;;17.40;99.90;;;;;;5038427;28;20052;-79
2022/05/27 09:03:00;;;;;;;1.38;0.40;;;17.20;99.90;;;;;;5036975;28;20053;-80
2022/05/27 09:05:38;;;;;;;1.67;0.50;;;17.30;99.90;;;;;;5054057;28;20068;-80
2022/05/27 09:08:19;;;;;;;1.85;0.57;;;17.30;99.90;;;;;;5052753;28;20044;-79
2022/05/27 09:11:13;;;;;;;6.80;0.70;;;17.50;99.90;;;;;;5051333;28;20092;-78
2022/05/27 09:13:56;;;;;;;1.27;0.50;;;17.40;99.90;;;;;;5053423;28;20060;-80
2022/05/27 09:16:44;;;;;;;1.00;0.63;;;17.50;99.90;;;;;;5053243;28;20036;-80
2022/05/27 09:19:25;;;;;;;1.67;0.60;;;17.60;99.90;;;;;;5052288;28;20424;-78
2022/05/27 09:22:28;;;;;;;1.38;0.40;;;17.60;99.90;;;;;;5051893;28;20484;-79
2022/05/27 09:25:41;;;;;;;2.08;0.52;;;17.70;99.90;;;;;;5042246;28;20135;-80
2022/05/27 09:28:32;;;;;;;1.00;0.50;;;17.90;99.90;;;;;;5027278;28;20072;-80
2022/05/27 09:31:05;;;;;;;0.77;0.38;;;17.80;99.90;;;;;;5051415;28;20037;-79
2022/05/27 09:33:34;;;;;;;1.67;0.57;;;17.70;99.90;;;;;;5051579;28;20048;-79
2022/05/27 09:36:05;;;;;;;0.93;0.50;;;17.70;99.90;;;;;;5052039;28;20094;-79
2022/05/27 09:38:34;;;;;;;0.63;0.43;;;17.90;99.90;;;;;;5052910;28;20041;-79
2022/05/27 09:41:03;;;;;;;0.77;0.50;;;18.20;99.90;;;;;;5051554;28;20501;-78
2022/05/27 09:43:50;;;;;;;2.65;0.82;;;18.20;99.90;;;;;;5051389;28;20500;-79
2022/05/27 09:46:26;;;;;;;5.80;0.88;;;18.10;99.90;;;;;;5052674;28;20065;-78
2022/05/27 09:48:53;;;;;;;7.70;1.25;;;;;;;;;;5031545;28;20582;-78
2022/05/27 09:51:20;;;;;;;1.15;0.40;;;;;;;;;;5031877;28;20045;-77
2022/05/27 09:53:49;;;;;;;0.50;0.40;;;;;;;;;;5046624;28;20041;-79
2022/05/27 09:56:17;;;;;;;1.13;0.60;;;;;;;;;;5030367;28;20076;-78
2022/05/27 09:58:46;;;;;;;1.67;0.65;;;;;;;;;;5029914;28;20478;-78
2022/05/27 10:01:26;;;;;;;28.05;2.85;;;;;;;;;;5032345;28;20084;-79
2022/05/27 10:04:06;;;;;;;1.45;0.52;;;18.70;99.90;;;;;;5044260;28;20056;-77
2022/05/27 10:06:38;;;;;;;4.18;0.70;;;19.20;99.90;;;;;;5051056;28;20128;-78
2022/05/27 10:09:08;;;;;;;7.15;0.60;;;18.90;99.90;;;;;;5051503;28;20052;-77
2022/05/27 10:11:50;;;;;;;2.38;0.68;;;19.00;99.90;;;;;;5050983;28;20083;-77
2022/05/27 10:14:37;;;;;;;0.63;0.43;;;18.70;99.90;;;;;;5051575;28;20041;-78
2022/05/27 10:17:13;;;;;;;0.85;0.45;;;18.70;99.90;;;;;;5034187;28;20037;-77
2022/05/27 10:20:21;;;;;;;3.05;0.73;;;18.40;99.90;;;;;;5052694;28;20045;-78
2022/05/27 10:23:11;;;;;;;0.85;0.50;;;19.10;99.90;;;;;;5053272;28;20142;-78
2022/05/27 10:25:41;;;;;;;0.85;0.40;;;19.00;99.90;;;;;;5048303;28;20041;-77
2022/05/27 10:28:10;;;;;;;0.52;0.40;;;19.20;99.90;;;;;;5050389;28;20128;-77
2022/05/27 10:30:56;;;;;;;1.35;0.32;;;19.50;99.90;;;;;;5052445;28;20094;-76
2022/05/27 10:33:36;;;;;;;1.90;0.65;;;19.40;99.90;;;;;;5050200;28;20036;-78
2022/05/27 10:36:21;;;;;;;1.20;0.35;;;19.30;99.90;;;;;;5050576;28;20475;-79
2022/05/27 10:39:14;;;;;;;15.27;9.18;;;19.60;99.90;;;;;;5051642;28;20362;-79
2022/05/27 10:42:02;;;;;;;2.55;1.50;;;20.30;99.90;;;;;;5029450;28;20033;-80
2022/05/27 10:44:48;;;;;;;0.75;0.55;;;20.30;99.90;;;;;;5050037;28;20563;-77
2022/05/27 10:47:51;;;;;;;1.73;0.65;;;20.20;99.90;;;;;;5053055;28;20115;-79
2022/05/27 10:50:37;;;;;;;2.88;0.80;;;19.70;99.90;;;;;;5055372;28;20098;-79
2022/05/27 10:53:30;;;;;;;1.55;0.80;;;20.10;99.90;;;;;;5053718;28;20098;-78
2022/05/27 10:56:34;;;;;;;1.38;1.00;;;20.90;99.90;;;;;;5053806;28;20037;-78
2022/05/27 11:02:07;;;;;;;3.92;1.15;;;20.20;99.90;;;;;;5054662;28;20128;-79
2022/05/27 11:05:01;;;;;;;0.93;0.55;;;20.40;99.90;;;;;;5055994;28;20056;-79
2022/05/27 11:07:49;;;;;;;7.28;0.70;;;20.80;99.90;;;;;;5055965;28;20037;-79
2022/05/27 11:10:23;;;;;;;5.25;0.55;;;21.30;99.90;;;;;;5055535;28;20044;-80
2022/05/27 11:16:45;;;;;;;2.38;0.55;;;21.50;99.90;;;;;;5011297;28;20099;-80
2022/05/27 11:20:02;;;;;;;12.13;5.82;;;21.10;99.90;;;;;;5012694;28;20518;-80
2022/05/27 11:22:53;;;;;;;9.77;2.30;;;21.60;99.90;;;;;;5053519;28;20389;-81
2022/05/27 11:25:55;;;;;;;26.27;18.02;;;21.90;99.90;;;;;;5056165;28;20087;-82
2022/05/27 11:29:18;;;;;;;136.85;112.65;;;22.00;99.90;;;;;;5053651;28;20041;-78
2022/05/27 11:32:22;;;;;;;3.45;2.42;;;22.80;99.90;;;;;;5053803;28;20040;-82
2022/05/27 11:35:18;;;;;;;1.55;0.50;;;22.70;99.90;;;;;;5053672;28;20443;-82
2022/05/27 11:38:16;;;;;;;3.38;2.60;;;21.60;99.90;;;;;;5052868;28;20053;-82
2022/05/27 11:41:25;;;;;;;3.15;0.60;;;21.50;99.90;;;;;;5053917;28;20041;-81
2022/05/27 11:44:03;;;;;;;0.50;0.43;;;;;;;;;;5017329;28;20048;-81
2022/05/27 11:46:49;;;;;;;46.15;41.70;;;20.80;99.90;;;;;;5055257;28;20128;-81
2022/05/27 11:49:28;;;;;;;1.35;0.77;;;21.60;99.70;;;;;;5053888;28;20045;-80
2022/05/27 11:52:10;;;;;;;0.80;0.40;;;22.10;99.90;;;;;;5053761;28;20045;-80
2022/05/27 11:55:25;;;;;;;25.63;21.15;;;21.80;99.80;;;;;;5053737;28;20037;-82
2022/05/27 11:58:10;;;;;;;5.03;2.03;;;22.40;98.60;;;;;;5019898;28;20041;-82
2022/05/27 12:00:45;;;;;;;75.78;57.72;;;22.30;99.80;;;;;;5053474;28;20041;-81
2022/05/27 12:03:22;;;;;;;67.47;37.40;;;23.50;99.20;;;;;;5053662;28;20070;-81
2022/05/27 12:05:55;;;;;;;2.17;1.38;;;22.80;97.90;;;;;;5053173;28;20045;-80
2022/05/27 12:08:42;;;;;;;18.08;10.45;;;21.70;99.40;;;;;;5052729;28;20527;-80
2022/05/27 12:11:16;;;;;;;0.73;0.50;;;21.80;99.20;;;;;;5054177;28;20041;-82
2022/05/27 12:14:06;;;;;;;1.48;0.50;;;21.80;99.30;;;;;;5053967;28;20063;-83
2022/05/27 12:16:37;;;;;;;3.60;2.83;;;21.70;99.30;;;;;;5045827;28;20052;-80
2022/05/27 12:19:08;;;;;;;0.85;0.50;;;22.10;99.50;;;;;;5054569;28;20500;-81
2022/05/27 12:22:00;;;;;;;25.27;18.30;;;22.00;97.80;;;;;;5052776;28;20041;-81
2022/05/27 12:24:38;;;;;;;26.38;18.38;;;22.30;98.90;;;;;;5053355;28;20049;-81
2022/05/27 12:27:06;;;;;;;3.22;0.80;;;22.10;99.00;;;;;;5052989;28;20206;-81
2022/05/27 12:29:35;;;;;;;0.70;0.50;;;21.70;99.00;;;;;;5053107;28;20041;-78
2022/05/27 12:32:06;;;;;;;2.20;1.75;;;21.50;99.50;;;;;;5053162;28;20119;-81
2022/05/27 12:34:39;;;;;;;230.65;199.23;;;21.80;99.90;;;;;;5052546;28;20047;-81
2022/05/27 12:37:23;;;;;;;5.75;4.50;;;22.40;99.70;;;;;;5052836;28;20507;-82
2022/05/27 12:40:12;;;;;;;115.63;102.20;;;22.70;99.40;;;;;;5052861;28;20769;-80
2022/05/27 12:42:44;;;;;;;503.10;392.30;;;22.50;98.40;;;;;;5048433;28;20053;-80
2022/05/27 12:45:47;;;;;;;6.97;5.45;;;22.40;97.80;;;;;;5051689;28;20044;-81
2022/05/27 12:48:44;;;;;;;71.55;57.00;;;22.40;98.30;;;;;;5051667;28;20094;-80
2022/05/27 12:51:20;;;;;;;214.45;153.05;;;22.00;97.80;;;;;;5030079;28;20131;-82
2022/05/27 12:53:56;;;;;;;48.88;36.50;;;22.30;97.60;;;;;;5051973;28;20045;-79
2022/05/27 13:02:17;;;;;;;2.88;0.73;;;23.50;96.60;;;;;;5052500;28;20039;-79
2022/05/27 13:04:47;;;;;;;9.60;4.18;;;23.20;97.00;;;;;;5054669;28;20531;-81
2022/05/27 13:07:15;;;;;;;1.23;0.70;;;23.40;98.20;;;;;;5054132;28;20045;-82
2022/05/27 13:09:46;;;;;;;0.90;0.63;;;24.00;97.00;;;;;;5053688;28;20045;-84
2022/05/27 13:12:47;;;;;;;30.80;19.63;;;23.80;96.20;;;;;;5053720;28;20128;-85
2022/05/27 13:15:33;;;;;;;11.88;6.63;;;23.30;96.80;;;;;;5053766;28;20041;-80
2022/05/27 13:18:12;;;;;;;4.50;1.60;;;23.00;97.30;;;;;;5054119;28;20489;-79
2022/05/27 13:20:51;;;;;;;6.70;1.60;;;23.60;96.60;;;;;;5054163;28;20404;-81
2022/05/27 13:23:24;;;;;;;52.33;35.17;;;24.10;97.20;;;;;;5054240;28;20053;-81
2022/05/27 13:26:14;;;;;;;17.80;4.95;;;24.40;96.20;;;;;;5054387;28;20040;-82
2022/05/27 13:29:14;;;;;;;5.60;1.00;;;24.30;95.60;;;;;;5054098;28;20401;-82
2022/05/27 13:31:44;;;;;;;6.72;1.17;;;24.00;96.80;;;;;;5054214;28;20037;-84
2022/05/27 13:34:32;;;;;;;2.67;0.68;;;24.00;96.40;;;;;;5054217;28;20040;-81
2022/05/27 13:37:03;;;;;;;3.00;1.02;;;23.70;96.30;;;;;;5054328;28;20508;-83
2022/05/27 13:39:45;;;;;;;38.90;15.80;;;24.10;96.90;;;;;;5053460;28;20523;-83
2022/05/27 13:42:23;;;;;;;5.57;1.55;;;24.00;95.80;;;;;;5054108;28;20044;-82
2022/05/27 13:44:50;;;;;;;1.50;1.08;;;24.20;96.30;;;;;;5053572;28;20420;-80
2022/05/27 13:47:21;;;;;;;6.93;0.77;;;24.10;95.40;;;;;;5053517;28;20068;-81
2022/05/27 13:49:49;;;;;;;21.15;14.48;;;23.20;94.20;;;;;;5054152;28;20044;-79
2022/05/27 13:52:28;;;;;;;18.80;11.68;;;22.80;95.40;;;;;;5053414;28;20073;-79
2022/05/27 13:55:29;;;;;;;2.95;1.98;;;22.70;95.70;;;;;;5034934;28;20083;-79
2022/05/27 13:58:02;;;;;;;9.50;6.00;;;22.50;95.00;;;;;;5053886;28;20044;-78
2022/05/27 14:00:37;;;;;;;3.28;0.60;;;22.70;95.20;;;;;;5053561;28;20202;-79
2022/05/27 14:03:04;;;;;;;3.83;0.90;;;22.50;95.50;;;;;;5053526;28;20048;-79